No se requiere un especial cuidado respecto a la situación meteorológica.   -   No hay avisos

Informes METAR

 

LEZL - Sevilla, Spain
Distancia de la estación: ENE 8km
Actualización: 23/04/2017 21:30
Despejado
Despejado
 Viento de OSO
Viento: OSO 17 km/h
Temperatura: 23°C
Rocío: 10°C
Humedad: 44%
Barómetro: 1013 hPa
Resumen: Despejado
Visibilidad: mayor de 10 km
2017/04/23 19:30 LEZL 231930Z 24009KT 210V270 CAVOK 23/10 Q1013 NOSIG
LEMO - Morón, Spain
Distancia de la estación: SE 43km
Actualización: 23/04/2017 21:00
Despejado
Despejado
 Viento de O
Viento: O 17 km/h
Temperatura: 22°C
Rocío: 10°C
Humedad: 47%
Barómetro: 1014 hPa
Resumen: Despejado
Visibilidad: mayor de 10 km
2017/04/23 19:00 LEMO 231900Z 26009KT 230V290 CAVOK 22/10 Q1014 NOSIG
LEJR - Jeréz, Spain
Distancia de la estación: S 71km
Actualización: 23/04/2017 21:30
Despejado
Despejado
 Viento de ONO
Viento: ONO 9 km/h
Temperatura: 18°C
Rocío: 14°C
Humedad: 78%
Barómetro: 1014 hPa
Resumen: Despejado
Visibilidad: mayor de 10 km
2017/04/23 19:30 LEJR 231930Z 29005KT 250V320 CAVOK 18/14 Q1014
 
LERT - Rota, Spain
Distancia de la estación: SSO 89km
Actualización: 23/04/2017 21:00
Despejado
Despejado
 Viento de SSO
Viento: SSO 9 km/h
Temperatura: 18°C
Rocío: 14°C
Humedad: 78%
Barómetro: 1014 hPa
Resumen: Despejado
Visibilidad: mayor de 10 km
2017/04/23 19:00 LERT 231900Z 21005KT CAVOK 18/14 Q1014 NOSIG
LEMG - Málaga, Spain
Distancia de la estación: ESE 157km
Actualización: 23/04/2017 21:30
Despejado
Despejado
 Viento de SE
Viento: SE 9 km/h
Temperatura: 16°C
Rocío: 11°C
Humedad: 72%
Barómetro: 1016 hPa
Resumen: Despejado
Visibilidad: mayor de 10 km
2017/04/23 19:30 LEMG 231930Z 14005KT CAVOK 16/11 Q1016 NOSIG
LEBA - Córdoba, Spain
Distancia de la estación: ENE 115km
Actualización: 23/04/2017 21:30
Despejado
Despejado
 Viento de SSO
Viento: SSO 13 km/h
Temperatura: 22°C
Rocío: 8°C
Humedad: 41%
Barómetro: 1013 hPa
Nubes: Despejado
Visibilidad: 10 km
2017/04/23 19:30 LEBA 231930Z AUTO 20007KT 9999 NCD 22/08 Q1013
 
LEGR - Granada, Spain
Distancia de la estación: E 198km
Actualización: 23/04/2017 21:30
Poco nuboso
Poco nuboso
 Viento de variable
Viento: variable 4 km/h
Temperatura: 18°C
Rocío: 8°C
Humedad: 52%
Barómetro: 1016 hPa
Nubes: Poco nuboso
Visibilidad: 10 km
Detalles de las nubes: Poco nuboso 1524 m
2017/04/23 19:30 LEGR 231930Z VRB02KT 9999 FEW050 18/08 Q1016
LEAM - Almería, Spain
Distancia de la estación: E 326km
Actualización: 23/04/2017 21:30
Despejado
Despejado
 Viento de ESE
Viento: ESE 7 km/h
Temperatura: 18°C
Rocío: 9°C
Humedad: 56%
Barómetro: 1016 hPa
Resumen: Despejado
Visibilidad: mayor de 10 km
2017/04/23 19:30 LEAM 231930Z 11004KT CAVOK 18/09 Q1016
LEMD - Madrid/Barajas, Spain
Distancia de la estación: NNE 402km
Actualización: 23/04/2017 21:30
Despejado
Despejado
 Viento de SSO
Viento: SSO 4 km/h
Temperatura: 22°C
Rocío: -3°C
Humedad: 19%
Barómetro: 1014 hPa
Resumen: Despejado
Visibilidad: mayor de 10 km
2017/04/23 19:30 LEMD 231930Z 20002KT CAVOK 22/M03 Q1014 NOSIG
 
LEVD - Valladolid, Spain
Distancia de la estación: N 492km
Actualización: 23/04/2017 21:30
Poco nuboso
Poco nuboso
 Viento de O
Viento: O 4 km/h
Temperatura: 20°C
Rocío: -5°C
Humedad: 18%
Barómetro: 1016 hPa
Nubes: Poco nuboso
Visibilidad: 10 km
Detalles de las nubes: Poco nuboso 1219 m
2017/04/23 19:30 LEVD 231930Z 28002KT 9999 FEW040 20/M05 Q1016
LEBL - Barcelona, Spain
Distancia de la estación: NE 816km
Actualización: 23/04/2017 21:30
Despejado
Despejado
 Viento de SO
Viento: SO 13 km/h
Temperatura: 15°C
Rocío: 12°C
Humedad: 82%
Barómetro: 1017 hPa
Resumen: Despejado
Visibilidad: mayor de 10 km
2017/04/23 19:30 LEBL 231930Z 22007KT CAVOK 15/12 Q1017 NOSIG
LEVC - Valencia, Spain
Distancia de la estación: ENE 535km
Actualización: 23/04/2017 21:30
Despejado
Despejado
 Viento de variable
Viento: variable 2 km/h
Temperatura: 15°C
Rocío: 9°C
Humedad: 68%
Barómetro: 1018 hPa
Resumen: Despejado
Visibilidad: mayor de 10 km
2017/04/23 19:30 LEVC 231930Z VRB01KT CAVOK 15/09 Q1018 NOSIG